createdAt,value
2022-12-07T11:29:34.408Z,0.50
2022-12-07T11:32:46.680Z,0.52
2022-12-07T11:35:56.725Z,0.50
2022-12-07T11:39:03.219Z,0.80
2022-12-07T11:42:07.698Z,2.20
2022-12-07T11:45:16.405Z,2.30
2022-12-07T11:48:21.106Z,0.85
2022-12-07T11:51:23.645Z,0.73
2022-12-07T11:54:28.246Z,0.70
2022-12-07T11:57:34.576Z,1.00
2022-12-07T12:00:38.518Z,0.95
2022-12-07T12:03:45.883Z,0.73
2022-12-07T12:06:50.930Z,0.90
2022-12-07T12:09:55.217Z,1.20
2022-12-07T12:16:53.299Z,1.52
2022-12-07T12:20:03.913Z,0.95
2022-12-07T12:23:08.280Z,0.77
2022-12-07T12:26:17.433Z,0.60
2022-12-07T12:29:24.243Z,1.20
2022-12-07T12:32:34.363Z,0.85
2022-12-07T12:35:37.467Z,0.68
2022-12-07T12:38:50.351Z,0.57
2022-12-07T12:42:09.373Z,1.30
2022-12-07T12:45:30.266Z,0.82
2022-12-07T12:48:34.387Z,1.10
2022-12-07T12:51:40.619Z,0.50
2022-12-07T12:55:02.294Z,0.60
2022-12-07T12:58:30.477Z,0.60
2022-12-07T13:01:50.795Z,0.30
2022-12-07T13:04:56.692Z,1.00
2022-12-07T13:08:01.146Z,0.60
2022-12-07T13:11:18.879Z,0.40
2022-12-07T13:14:56.360Z,0.90
2022-12-07T13:18:01.516Z,0.82
2022-12-07T13:21:43.528Z,0.20
2022-12-07T13:24:46.060Z,0.47
2022-12-07T13:27:50.921Z,0.30
2022-12-07T13:31:01.177Z,0.63
2022-12-07T13:34:04.214Z,0.70
2022-12-07T13:37:13.040Z,0.60
2022-12-07T13:40:19.104Z,0.30
2022-12-07T13:43:21.643Z,0.65
2022-12-07T13:46:28.352Z,0.40
2022-12-07T13:49:32.331Z,0.60
2022-12-07T13:52:36.259Z,0.88
2022-12-07T13:55:38.817Z,0.50
2022-12-07T13:58:41.408Z,0.80
2022-12-07T14:01:44.754Z,0.40
2022-12-07T14:04:47.410Z,0.70
2022-12-07T14:07:57.693Z,0.57
2022-12-07T14:11:00.409Z,0.70
2022-12-07T14:14:03.137Z,0.93
2022-12-07T14:17:13.971Z,0.93
2022-12-07T14:20:31.347Z,0.60
2022-12-07T14:23:35.245Z,0.70
2022-12-07T14:26:38.045Z,0.70
2022-12-07T14:29:40.647Z,0.60
2022-12-07T14:32:43.911Z,0.73
2022-12-07T14:35:46.432Z,1.17
2022-12-07T14:38:50.381Z,1.60
2022-12-07T14:41:52.991Z,1.00
2022-12-07T14:44:55.553Z,0.75
2022-12-07T14:54:44.944Z,2.30
2022-12-07T14:57:47.479Z,1.30
2022-12-07T15:00:50.028Z,1.10
2022-12-07T15:03:52.704Z,0.95
2022-12-07T15:06:58.654Z,1.23
2022-12-07T15:10:02.602Z,0.70
2022-12-07T15:13:19.062Z,1.20
2022-12-07T15:16:22.351Z,0.85
2022-12-07T15:19:28.347Z,0.90
2022-12-07T15:22:37.987Z,0.73
2022-12-07T15:25:43.513Z,0.80
2022-12-07T15:28:46.073Z,0.80
2022-12-07T15:31:58.434Z,1.02
2022-12-07T15:35:01.728Z,1.13
2022-12-07T15:38:04.722Z,1.38
2022-12-07T15:41:08.666Z,1.88
2022-12-07T15:44:31.402Z,2.00
2022-12-07T15:47:40.269Z,0.80
2022-12-07T15:51:03.879Z,0.80
2022-12-07T15:54:06.572Z,0.75
2022-12-07T15:57:10.502Z,1.48
2022-12-07T16:00:14.729Z,1.45
2022-12-07T16:03:17.351Z,1.70
2022-12-07T16:06:20.242Z,0.90
2022-12-07T16:09:22.844Z,1.30
2022-12-07T16:12:27.067Z,1.63
2022-12-07T16:15:29.664Z,1.95
2022-12-07T16:18:32.222Z,1.80
2022-12-07T16:21:35.413Z,2.15
2022-12-07T16:24:38.031Z,1.88
2022-12-07T16:27:41.916Z,2.15
2022-12-07T16:30:44.505Z,1.98
2022-12-07T16:33:47.070Z,1.90
2022-12-07T16:37:05.727Z,2.15
2022-12-07T16:40:09.841Z,2.75
2022-12-07T16:43:14.532Z,2.42
2022-12-07T16:46:17.665Z,3.25
2022-12-07T16:49:20.532Z,3.20
2022-12-07T16:52:23.233Z,3.20
2022-12-07T16:55:25.823Z,3.03
2022-12-07T16:58:29.764Z,5.40
2022-12-07T17:01:32.348Z,4.30
2022-12-07T17:04:35.748Z,3.92
2022-12-07T17:07:38.382Z,4.65
2022-12-07T17:10:41.925Z,2.92
2022-12-07T17:14:03.193Z,2.60
2022-12-07T17:17:06.117Z,4.82
2022-12-07T17:20:09.688Z,5.78
2022-12-07T17:23:12.223Z,4.85
2022-12-07T17:26:15.941Z,3.13
2022-12-07T17:29:20.364Z,1.58
2022-12-07T17:32:22.951Z,2.33
2022-12-07T17:35:25.533Z,1.95
2022-12-07T17:38:29.217Z,1.15
2022-12-07T17:41:49.288Z,1.65
2022-12-07T17:44:53.255Z,6.38
2022-12-07T17:47:55.814Z,7.47
2022-12-07T17:51:18.649Z,3.83
2022-12-07T17:54:21.222Z,7.18
2022-12-07T17:57:23.815Z,2.75
2022-12-07T18:00:27.713Z,2.20
2022-12-07T18:03:30.431Z,1.30
2022-12-07T18:06:33.119Z,1.83
2022-12-07T18:09:35.850Z,1.20
2022-12-07T18:12:40.361Z,1.00
2022-12-07T18:15:44.291Z,0.98
2022-12-07T18:18:52.308Z,1.17
2022-12-07T18:21:55.510Z,0.98
2022-12-07T18:24:58.114Z,0.93
2022-12-07T18:28:00.684Z,2.00
2022-12-07T18:31:19.818Z,2.45
2022-12-07T18:34:22.382Z,1.05
2022-12-07T18:37:27.382Z,1.65
2022-12-07T18:40:29.985Z,0.90
2022-12-07T18:43:32.585Z,2.92
2022-12-07T18:46:36.621Z,3.88
2022-12-07T18:49:39.204Z,6.47
2022-12-07T18:52:41.806Z,7.10
2022-12-07T18:55:44.418Z,5.55
2022-12-07T18:59:03.786Z,2.97
2022-12-07T19:02:07.839Z,1.45
2022-12-07T19:05:10.442Z,1.25
2022-12-07T19:08:13.093Z,1.35
2022-12-07T19:11:35.396Z,3.88
2022-12-07T19:14:38.220Z,2.75
2022-12-07T19:17:42.358Z,2.05
2022-12-07T19:20:44.943Z,1.98
2022-12-07T19:23:47.525Z,2.40
2022-12-07T19:26:50.103Z,2.80
2022-12-07T19:29:52.688Z,3.10
2022-12-07T19:32:56.587Z,2.90
2022-12-07T19:35:59.172Z,2.30
2022-12-07T19:39:01.770Z,1.63
2022-12-07T19:42:04.751Z,1.60
2022-12-07T19:45:08.134Z,1.55
2022-12-07T19:48:12.040Z,1.20
2022-12-07T19:51:14.631Z,1.70
2022-12-07T19:54:18.010Z,1.90
2022-12-07T19:57:20.649Z,1.40
2022-12-07T20:00:23.273Z,1.55
2022-12-07T20:03:27.749Z,0.95
2022-12-07T20:06:30.324Z,1.75
2022-12-07T20:09:32.932Z,2.45
2022-12-07T20:12:53.269Z,2.03
2022-12-07T20:16:17.975Z,2.08
2022-12-07T20:19:19.767Z,1.58
2022-12-07T20:22:22.334Z,9.82
2022-12-07T20:25:24.884Z,1.67
2022-12-07T20:28:27.465Z,3.13
2022-12-07T20:31:30.149Z,3.17
2022-12-07T20:34:34.149Z,2.33
2022-12-07T20:37:36.735Z,2.95
2022-12-07T20:40:39.563Z,1.80
2022-12-07T20:43:42.092Z,1.40
2022-12-07T20:46:44.836Z,2.35
2022-12-07T20:49:48.793Z,1.77
2022-12-07T20:52:54.885Z,1.75
2022-12-07T20:56:00.081Z,2.10
2022-12-07T20:59:06.553Z,2.00
2022-12-07T21:02:11.588Z,2.55
2022-12-07T21:05:15.585Z,2.30
2022-12-07T21:08:18.214Z,2.10
2022-12-07T21:11:21.822Z,0.85
2022-12-07T21:14:24.412Z,1.05
2022-12-07T21:17:27.104Z,1.05
2022-12-07T21:20:31.062Z,0.88
2022-12-07T21:23:33.783Z,1.60
2022-12-07T21:26:36.585Z,0.82
2022-12-07T21:29:49.704Z,0.70
2022-12-07T21:32:55.251Z,0.90
2022-12-07T21:35:59.150Z,0.65
2022-12-07T21:39:01.693Z,0.70
2022-12-07T21:42:04.328Z,1.33
2022-12-07T21:45:07.706Z,1.48
2022-12-07T21:48:10.390Z,1.15
2022-12-07T21:51:14.789Z,0.68
2022-12-07T21:54:21.471Z,0.60
2022-12-07T21:57:26.887Z,0.85
2022-12-07T22:00:29.593Z,1.50
2022-12-07T22:03:32.196Z,1.55
2022-12-07T22:06:36.616Z,2.17
2022-12-07T22:09:39.188Z,1.27
2022-12-07T22:12:41.764Z,1.25
2022-12-07T22:15:44.365Z,1.00
2022-12-07T22:18:46.972Z,1.50
2022-12-07T22:21:50.913Z,1.70
2022-12-07T22:24:53.607Z,1.40
2022-12-07T22:27:56.250Z,0.85
2022-12-07T22:31:03.523Z,0.88
2022-12-07T22:34:06.091Z,0.70
2022-12-07T22:37:09.982Z,0.70
2022-12-07T22:40:13.764Z,0.50
2022-12-07T22:43:16.429Z,0.63
2022-12-07T22:46:19.053Z,0.70
2022-12-07T22:49:25.525Z,0.50
2022-12-07T22:52:32.446Z,1.05
2022-12-07T22:55:35.008Z,1.60
2022-12-07T22:58:37.549Z,1.38
2022-12-07T23:01:40.161Z,1.08
2022-12-07T23:04:42.743Z,0.65
2022-12-07T23:07:46.735Z,0.60
2022-12-07T23:10:49.561Z,0.93
2022-12-07T23:13:51.118Z,0.57
2022-12-07T23:16:53.680Z,0.82
2022-12-07T23:19:56.510Z,0.40
2022-12-07T23:23:00.404Z,0.47
2022-12-07T23:26:04.230Z,0.40
2022-12-07T23:29:06.805Z,0.45
2022-12-07T23:32:09.444Z,0.70
2022-12-07T23:35:12.046Z,0.88
2022-12-07T23:38:15.959Z,0.90
2022-12-07T23:41:19.735Z,0.70
2022-12-07T23:44:22.403Z,0.60
2022-12-07T23:47:24.971Z,1.20
2022-12-07T23:50:27.561Z,0.95
2022-12-07T23:53:33.341Z,1.00
2022-12-07T23:56:35.918Z,0.88
2022-12-07T23:59:38.924Z,0.98
